Excellence — KTDP — position and weather

sailwx.info

Track history (hours):
 
Tides and Currents Weather Stations Pressure Air Temp Water Temp Dewpoint Dewpoint Depression Visibility Wind Speed Wind Dir Waves Ship Positions

Excellence

Owner: AJVS, INC, Seattle, WA. More information available from US FCC via Universal Licensing System and Coast Guard Vessel Documentation Center.

Last reported at 2016-Jan-22 00:22 UTC. Time now 2016-Feb-09 03:28 UTC.
Position N 49°12' W 127°11'.
Warning: this ship's position is 18 days out of date.

Length 112 m; draft 6 m.

Type: Other ship. MMSI: 338162000.

Date/timePositionNaut miles runAvg speedWind from/ knotsBaromVisibWave heightAir tempDewpointWater temp
2016-Jan-22 00:22N 49°12' W 127°11'2713.7
2016-Jan-21 22:24N 48°59' W 126°35'1214.1
2016-Jan-21 21:33N 48°53' W 126°19'1413.8
2016-Jan-21 20:33N 48°46' W 126°00'1413.6
2016-Jan-21 19:33N 48°40' W 125°42'1313.1
2016-Jan-21 18:33N 48°35' W 125°24'1313.1
2016-Jan-21 17:32N 48°33' W 125°04'2913.8
2016-Jan-21 15:26N 48°25' W 124°22'1213.9
2016-Jan-21 14:33N 48°20' W 124°05'1414.1
2016-Jan-21 13:33N 48°16' W 123°45'1413.5
2016-Jan-21 12:33N 48°14' W 123°25'1312.9
2016-Jan-21 11:32N 48°13' W 123°05'1212.5
2016-Jan-21 10:33N 48°11' W 122°47'1110.7
2016-Jan-21 09:34N 48°03' W 122°38'1111.1
2016-Jan-21 08:34N 47°53' W 122°28'1212.5
2016-Jan-21 07:33N 47°41' W 122°27'  
Track history (hours):
 
Tides and Currents Weather Stations Pressure Air Temp Water Temp Dewpoint Dewpoint Depression Visibility Wind Speed Wind Dir Waves Ship Positions

Excellence

Owner: AJVS, INC, Seattle, WA. More information available from US FCC via Universal Licensing System and Coast Guard Vessel Documentation Center.

Last reported at 2016-Jan-22 00:22 UTC. Time now 2016-Feb-09 03:28 UTC.
Position N 49°12' W 127°11'.
Warning: this ship's position is 18 days out of date.

Length 112 m; draft 6 m.

Type: Other ship. MMSI: 338162000.

Date/timePositionNaut miles runAvg speedWind from/ knotsBaromVisibWave heightAir tempDewpointWater temp
2016-Jan-22 00:22N 49°12' W 127°11'2713.7
2016-Jan-21 22:24N 48°59' W 126°35'1214.1
2016-Jan-21 21:33N 48°53' W 126°19'1413.8
2016-Jan-21 20:33N 48°46' W 126°00'1413.6
2016-Jan-21 19:33N 48°40' W 125°42'1313.1
2016-Jan-21 18:33N 48°35' W 125°24'1313.1
2016-Jan-21 17:32N 48°33' W 125°04'2913.8
2016-Jan-21 15:26N 48°25' W 124°22'1213.9
2016-Jan-21 14:33N 48°20' W 124°05'1414.1
2016-Jan-21 13:33N 48°16' W 123°45'1413.5
2016-Jan-21 12:33N 48°14' W 123°25'1312.9
2016-Jan-21 11:32N 48°13' W 123°05'1212.5
2016-Jan-21 10:33N 48°11' W 122°47'1110.7
2016-Jan-21 09:34N 48°03' W 122°38'1111.1
2016-Jan-21 08:34N 47°53' W 122°28'1212.5
2016-Jan-21 07:33N 47°41' W 122°27'  

Dump ship's entire track history